Time;durP1;ratioP1;P1;durP2;ratioP2;P2;SDS_P1;SDS_P2;PMS_P1;PMS_P2;Temp;Humidity;BMP_temperature;BMP_pressure;BME280_temperature;BME280_humidity;BME280_pressure;Samples;Min_cycle;Max_cycle;Signal;HPM_P1;HPM_P2
2023/11/24 00:01:54;;;;;;;2.13;1.40;;;8.50;95.50;;;9.66;67.99;97478.53;5013628;28;20050;-62
2023/11/24 00:04:22;;;;;;;1.60;1.10;;;8.50;94.80;;;9.78;67.56;97478.25;5013297;28;20049;-62
2023/11/24 00:06:51;;;;;;;1.50;1.07;;;8.60;94.30;;;9.82;67.34;97461.00;5013473;28;20049;-62
2023/11/24 00:09:18;;;;;;;2.10;1.40;;;8.70;93.70;;;9.86;67.47;97457.84;5014295;28;20065;-62
2023/11/24 00:11:46;;;;;;;1.43;1.13;;;8.70;93.20;;;9.91;66.96;97453.88;5013154;28;20050;-62
2023/11/24 00:14:15;;;;;;;2.60;1.33;;;8.80;92.70;;;9.82;66.90;97447.69;5012793;28;20049;-62
2023/11/24 00:16:43;;;;;;;2.00;1.00;;;8.70;92.00;;;9.70;67.11;97430.38;5012801;28;20065;-63
2023/11/24 00:19:13;;;;;;;3.10;1.27;;;8.70;91.80;;;9.77;67.11;97429.59;5013291;28;20073;-62
2023/11/24 00:21:46;;;;;;;2.00;1.00;;;8.80;91.20;;;9.85;67.02;97437.56;5013356;28;20050;-62
2023/11/24 00:24:14;;;;;;;1.00;0.90;;;8.90;91.30;;;9.89;66.72;97424.78;5013037;28;20053;-62
2023/11/24 00:26:42;;;;;;;1.23;0.97;;;8.90;90.60;;;9.85;66.51;97420.81;5013375;28;20046;-62
2023/11/24 00:29:10;;;;;;;1.37;0.93;;;8.90;89.60;;;9.86;66.68;97420.63;5012965;28;20049;-62
2023/11/24 00:31:38;;;;;;;1.17;0.87;;;8.90;89.40;;;9.85;66.69;97412.81;5012115;28;20077;-62
2023/11/24 00:34:07;;;;;;;1.80;1.20;;;8.90;89.40;;;9.86;66.29;97403.84;5012895;28;20041;-62
2023/11/24 00:36:36;;;;;;;1.17;0.87;;;8.90;88.90;;;9.96;66.05;97393.06;5012103;28;20423;-62
2023/11/24 00:39:04;;;;;;;1.60;0.80;;;9.00;88.80;;;9.98;66.29;97393.72;5011990;28;20533;-62
2023/11/24 00:41:33;;;;;;;0.90;0.80;;;9.00;88.30;;;10.04;65.89;97383.28;5012175;28;20515;-62
2023/11/24 00:44:01;;;;;;;0.70;0.70;;;9.00;88.30;;;9.97;65.94;97371.63;5003447;28;20516;-62
2023/11/24 00:46:29;;;;;;;0.93;0.70;;;9.00;88.10;;;9.92;66.28;97371.28;5013057;28;20411;-63
2023/11/24 00:48:57;;;;;;;1.57;0.80;;;9.00;88.20;;;9.91;66.05;97358.16;5011820;28;20057;-62
2023/11/24 00:51:25;;;;;;;1.13;0.73;;;9.00;88.00;;;9.90;65.90;97359.16;5011710;28;20077;-62
2023/11/24 00:53:53;;;;;;;0.83;0.60;;;9.00;87.80;;;9.97;65.65;97360.16;5012410;28;20392;-63
2023/11/24 00:56:21;;;;;;;0.80;0.77;;;9.00;87.90;;;9.77;66.29;97357.81;5011652;28;20133;-62
2023/11/24 00:58:50;;;;;;;1.10;0.90;;;9.00;88.20;;;9.94;65.77;97365.78;5012707;28;20514;-62
2023/11/24 01:01:18;;;;;;;0.53;0.53;;;9.00;87.80;;;10.04;65.57;97369.97;5012838;28;20057;-62
2023/11/24 01:03:46;;;;;;;1.13;0.87;;;9.10;87.90;;;9.95;66.31;97359.50;5011015;28;20049;-62
2023/11/24 01:06:14;;;;;;;0.80;0.80;;;9.10;87.90;;;10.03;65.68;97365.63;5011777;28;20050;-62
2023/11/24 01:08:41;;;;;;;2.70;0.80;;;9.10;87.80;;;10.06;65.61;97345.84;5011541;28;20061;-62
2023/11/24 01:11:09;;;;;;;1.23;0.80;;;9.20;87.60;;;10.01;65.72;97348.19;5012452;28;20054;-62
2023/11/24 01:13:38;;;;;;;3.00;0.80;;;9.20;87.60;;;10.06;65.96;97351.16;4994407;28;20519;-62
2023/11/24 01:16:06;;;;;;;2.60;0.87;;;9.10;87.30;;;10.01;66.03;97398.72;5011419;28;20053;-62
2023/11/24 01:18:37;;;;;;;0.77;0.60;;;9.10;88.20;;;9.66;66.91;97350.13;5011418;28;20077;-63
2023/11/24 01:21:06;;;;;;;0.73;0.70;;;9.00;87.60;;;9.81;66.55;97371.59;5004877;28;20042;-62
2023/11/24 01:23:35;;;;;;;1.77;1.47;;;9.00;88.00;;;9.85;66.66;97347.19;5011072;28;20075;-63
2023/11/24 01:26:03;;;;;;;2.47;0.90;;;9.20;87.90;;;9.99;66.16;97352.84;5001102;28;20049;-63
2023/11/24 01:28:31;;;;;;;1.40;0.83;;;9.20;87.80;;;9.80;66.98;97353.97;5010515;28;20081;-63
2023/11/24 01:30:59;;;;;;;0.83;0.70;;;9.10;88.30;;;9.95;66.85;97357.66;4994862;28;20523;-63
2023/11/24 01:33:26;;;;;;;0.97;0.90;;;9.10;88.60;;;9.88;66.66;97339.88;5010581;28;20396;-63
2023/11/24 01:35:55;;;;;;;1.40;1.00;;;9.20;88.20;;;10.05;66.41;97346.88;5010744;28;20050;-63
2023/11/24 01:38:23;;;;;;;0.80;0.80;;;9.20;88.60;;;10.02;66.38;97353.34;5012161;28;20046;-63
2023/11/24 01:40:51;;;;;;;0.73;0.73;;;9.20;88.20;;;10.16;66.11;97359.03;5012232;28;20057;-63
2023/11/24 01:43:19;;;;;;;1.10;0.87;;;9.30;88.70;;;10.17;65.96;97360.66;5010471;28;20321;-63
2023/11/24 01:45:47;;;;;;;1.20;1.00;;;9.30;88.30;;;10.00;66.80;97355.34;5012021;28;20052;-63
2023/11/24 01:48:17;;;;;;;3.50;0.90;;;9.20;89.20;;;10.07;66.45;97352.84;5011878;28;20050;-62
2023/11/24 01:50:45;;;;;;;0.97;0.90;;;9.20;89.50;;;10.08;66.74;97343.03;5010508;28;20430;-62
2023/11/24 01:53:13;;;;;;;1.03;0.93;;;9.10;89.80;;;10.07;66.58;97347.53;5010226;28;20053;-62
2023/11/24 01:55:42;;;;;;;1.20;1.00;;;9.20;89.60;;;9.98;66.83;97340.53;5010451;28;20517;-63
2023/11/24 01:58:10;;;;;;;1.13;0.80;;;9.20;89.60;;;9.76;67.77;97340.19;5010425;28;20345;-63
2023/11/24 02:00:38;;;;;;;2.70;1.30;;;9.10;90.50;;;9.79;68.00;97312.41;4986467;28;20503;-63
2023/11/24 02:03:06;;;;;;;1.00;1.00;;;9.10;91.00;;;9.99;67.38;97313.78;4986569;28;20427;-63
2023/11/24 02:05:37;;;;;;;1.47;1.20;;;9.10;91.20;;;9.94;67.71;97304.63;5010023;28;20054;-64
2023/11/24 02:08:05;;;;;;;1.80;1.47;;;9.10;91.50;;;9.84;68.11;97315.44;5010604;28;20064;-62
2023/11/24 02:10:34;;;;;;;1.67;1.10;;;9.00;92.80;;;9.90;68.52;97312.09;4994045;28;20049;-63
2023/11/24 02:13:01;;;;;;;2.13;1.13;;;9.00;93.80;;;10.02;68.30;97325.91;4978164;28;20049;-63
2023/11/24 02:15:30;;;;;;;2.30;1.67;;;9.10;93.80;;;10.01;68.17;97295.00;5002146;28;20164;-62
2023/11/24 02:17:58;;;;;;;1.63;1.40;;;9.00;94.10;;;9.78;69.07;97308.94;5011445;28;20042;-63
2023/11/24 02:20:26;;;;;;;3.70;1.60;;;9.00;95.00;;;9.73;69.72;97324.56;5010416;28;20053;-63
2023/11/24 02:22:54;;;;;;;1.30;1.13;;;8.90;96.00;;;9.72;69.90;97308.78;5010097;28;20100;-63
2023/11/24 02:25:21;;;;;;;1.27;1.00;;;8.80;96.60;;;9.66;69.85;97323.56;5011160;28;20076;-62
2023/11/24 02:27:50;;;;;;;4.10;1.27;;;8.80;96.70;;;9.48;70.43;97314.84;5009946;28;20439;-63
2023/11/24 02:30:17;;;;;;;1.00;0.90;;;8.80;96.70;;;9.61;69.89;97309.91;5009051;28;20054;-63
2023/11/24 02:32:45;;;;;;;1.20;1.10;;;8.80;96.40;;;9.57;70.39;97303.25;5001961;28;20048;-62
2023/11/24 02:35:13;;;;;;;1.30;1.03;;;8.80;96.90;;;9.64;70.21;97305.09;5009474;28;20049;-62
2023/11/24 02:37:40;;;;;;;1.07;0.90;;;8.80;97.00;;;9.81;69.25;97311.28;5009696;28;20071;-63
2023/11/24 02:40:10;;;;;;;2.67;1.03;;;8.80;96.70;;;9.84;69.18;97323.41;5009804;28;20064;-63
2023/11/24 02:42:39;;;;;;;1.13;1.03;;;8.90;95.40;;;9.69;69.86;97307.25;5011102;28;20383;-62
2023/11/24 02:45:07;;;;;;;1.43;0.97;;;8.80;95.40;;;9.72;69.71;97295.47;5009367;28;20042;-63
2023/11/24 02:47:35;;;;;;;1.10;1.00;;;8.80;96.50;;;9.91;68.97;97292.50;5011143;28;20422;-63
2023/11/24 02:50:03;;;;;;;0.93;0.80;;;8.90;96.20;;;9.81;69.29;97286.53;5009945;28;20152;-62
2023/11/24 02:52:31;;;;;;;1.53;1.00;;;8.80;96.40;;;9.82;69.64;97285.53;5011100;28;20061;-62
2023/11/24 02:54:58;;;;;;;0.87;0.87;;;8.70;97.20;;;9.79;69.56;97280.53;5009505;28;20133;-63
2023/11/24 02:57:26;;;;;;;0.80;0.80;;;8.80;97.70;;;9.86;69.49;97253.09;5009868;28;20065;-63
2023/11/24 02:59:54;;;;;;;0.97;0.80;;;8.80;97.10;;;9.93;69.14;97237.34;5009734;28;20049;-62
2023/11/24 03:02:21;;;;;;;1.00;0.90;;;8.80;96.50;;;9.92;68.74;97242.81;5009914;28;20427;-62
2023/11/24 03:04:49;;;;;;;0.83;0.80;;;8.80;95.50;;;9.82;69.15;97238.47;5009185;28;20046;-62
2023/11/24 03:07:17;;;;;;;0.80;0.70;;;8.80;95.80;;;9.90;69.11;97237.66;5010974;28;20038;-62
2023/11/24 03:09:45;;;;;;;1.57;0.80;;;8.80;95.80;;;9.79;68.89;97198.09;5009478;28;20042;-62
2023/11/24 03:12:13;;;;;;;1.47;0.70;;;8.80;95.50;;;9.85;69.06;97222.22;5001944;28;20420;-62
2023/11/24 03:14:42;;;;;;;1.00;0.87;;;8.80;95.50;;;9.77;69.12;97251.47;5010531;28;20431;-62
2023/11/24 03:17:13;;;;;;;2.10;0.80;;;8.80;95.80;;;9.79;69.32;97216.72;5010794;28;20053;-62
2023/11/24 03:19:40;;;;;;;0.50;0.50;;;8.80;95.20;;;9.79;68.99;97204.28;5009432;28;20038;-62
2023/11/24 03:22:08;;;;;;;1.37;0.90;;;8.80;95.40;;;9.81;68.89;97156.25;5009689;28;20061;-62
2023/11/24 03:24:35;;;;;;;0.83;0.60;;;8.80;95.50;;;9.71;69.29;97158.25;5010490;28;20038;-62
2023/11/24 03:27:03;;;;;;;1.00;0.80;;;8.70;95.60;;;9.68;69.37;97140.00;5009477;28;20431;-62
2023/11/24 03:29:33;;;;;;;0.87;0.70;;;8.80;95.00;;;9.66;68.91;97164.91;5010748;28;20450;-62
2023/11/24 03:32:02;;;;;;;0.70;0.70;;;8.80;94.40;;;9.58;69.30;97180.03;5008772;28;20086;-63
2023/11/24 03:34:29;;;;;;;0.60;0.60;;;8.80;94.60;;;9.44;69.83;97158.44;5009300;28;20065;-64
2023/11/24 03:36:57;;;;;;;0.67;0.67;;;8.70;94.80;;;9.53;69.41;97169.06;5009689;28;20046;-63
2023/11/24 03:39:25;;;;;;;1.17;0.80;;;8.70;95.00;;;9.49;69.75;97189.81;5009249;28;20050;-62
2023/11/24 03:41:53;;;;;;;0.90;0.80;;;8.70;94.20;;;9.62;69.36;97168.06;5010491;28;20042;-62
2023/11/24 03:44:20;;;;;;;0.60;0.60;;;8.80;93.70;;;9.63;69.31;97183.84;5010184;28;20064;-62
2023/11/24 03:46:48;;;;;;;0.60;0.60;;;8.80;93.80;;;9.69;69.12;97168.22;5011097;28;20045;-62
2023/11/24 03:49:16;;;;;;;0.60;0.60;;;8.80;93.50;;;9.70;69.30;97167.22;5010743;28;20049;-62
2023/11/24 03:51:44;;;;;;;0.67;0.63;;;8.90;93.40;;;9.64;69.19;97200.63;5013673;28;20072;-62
2023/11/24 03:54:12;;;;;;;0.63;0.60;;;8.90;93.40;;;9.57;69.85;97186.31;5014138;28;20037;-62
2023/11/24 03:56:39;;;;;;;0.50;0.50;;;8.80;94.00;;;9.42;70.32;97189.66;5013287;28;20046;-62
2023/11/24 03:59:07;;;;;;;0.40;0.40;;;8.90;93.50;;;9.58;69.85;97178.19;5012468;28;20527;-62
2023/11/24 04:01:34;;;;;;;0.40;0.40;;;8.90;93.60;;;9.58;70.02;97178.19;5004995;28;20046;-62
2023/11/24 04:04:02;;;;;;;0.50;0.50;;;8.90;93.70;;;9.66;69.72;97164.91;5013392;28;20048;-62
2023/11/24 04:06:30;;;;;;;0.50;0.50;;;8.90;93.30;;;9.76;68.96;97167.38;5012845;28;20061;-62
2023/11/24 04:08:58;;;;;;;0.30;0.30;;;8.90;92.80;;;9.62;69.01;97152.13;5013030;28;20045;-62
2023/11/24 04:11:26;;;;;;;0.50;0.40;;;8.80;92.40;;;9.74;68.85;97169.38;5013552;28;20454;-62
2023/11/24 04:13:55;;;;;;;0.50;0.50;;;8.80;92.50;;;9.59;68.97;97169.22;5011973;28;20046;-63
2023/11/24 04:16:23;;;;;;;0.60;0.60;;;8.80;91.60;;;9.72;68.47;97192.63;5012445;28;20515;-63
2023/11/24 04:18:51;;;;;;;0.27;0.27;;;8.80;92.00;;;9.53;68.83;97166.41;5012480;28;20057;-62
2023/11/24 04:21:18;;;;;;;1.00;0.50;;;8.80;91.90;;;9.55;68.95;97157.25;5004306;28;20046;-62
2023/11/24 04:23:46;;;;;;;0.70;0.50;;;8.80;92.20;;;9.42;69.33;97156.91;5013054;28;20068;-62
2023/11/24 04:26:14;;;;;;;0.60;0.60;;;8.80;92.30;;;9.42;69.55;97149.81;5010393;28;20054;-62
2023/11/24 04:28:41;;;;;;;0.77;0.60;;;8.80;92.50;;;9.21;70.65;97154.78;5012626;28;20053;-62
2023/11/24 04:31:09;;;;;;;0.57;0.50;;;8.70;93.20;;;9.29;70.00;97165.41;5013255;28;20049;-62
2023/11/24 04:33:36;;;;;;;0.70;0.70;;;8.70;93.70;;;9.19;70.59;97162.91;5013070;28;20045;-62
2023/11/24 04:36:07;;;;;;;0.83;0.83;;;8.70;94.60;;;9.04;71.50;97213.16;5013150;28;20050;-62
2023/11/24 04:38:34;;;;;;;0.97;0.70;;;8.60;95.20;;;9.27;70.46;97255.03;5013142;28;20038;-63
2023/11/24 04:41:02;;;;;;;1.90;1.20;;;8.60;93.00;;;9.34;67.80;97261.34;5012770;28;20057;-62
2023/11/24 04:43:30;;;;;;;2.13;1.30;;;8.30;86.90;;;9.35;66.53;97251.56;5011580;28;20407;-62
2023/11/24 04:45:57;;;;;;;5.60;2.23;;;7.90;87.60;;;9.15;65.87;97245.69;5012983;28;20049;-62
2023/11/24 04:48:25;;;;;;;3.07;1.50;;;7.60;88.00;;;8.79;65.95;97256.53;5012942;28;20057;-62
2023/11/24 04:50:53;;;;;;;3.83;1.70;;;7.20;90.40;;;8.65;66.18;97256.16;5012906;28;20408;-61
2023/11/24 04:53:21;;;;;;;5.00;1.83;;;6.90;93.60;;;8.53;66.34;97244.16;5012252;28;20400;-62
2023/11/24 04:55:49;;;;;;;5.50;2.83;;;6.70;96.80;;;8.31;66.86;97244.66;5012870;28;20049;-61
2023/11/24 04:58:17;;;;;;;4.10;1.83;;;6.50;99.50;;;8.11;67.51;97234.25;5012809;28;20053;-60
2023/11/24 05:00:45;;;;;;;4.57;1.67;;;6.30;99.90;;;8.06;67.57;97239.19;5011118;28;20137;-60
2023/11/24 05:03:12;;;;;;;7.03;2.00;;;6.30;99.90;;;7.98;67.72;97237.31;5012474;28;20068;-60
2023/11/24 05:05:40;;;;;;;7.83;2.97;;;6.20;99.90;;;7.91;68.00;97223.03;5011289;28;20045;-60
2023/11/24 05:08:08;;;;;;;6.20;2.30;;;6.20;99.90;;;7.94;68.09;97224.53;5011229;28;20061;-60
2023/11/24 05:10:36;;;;;;;5.23;2.00;;;6.20;99.90;;;7.99;68.08;97224.91;5011340;28;20426;-60
2023/11/24 05:13:04;;;;;;;7.87;2.57;;;6.20;99.90;;;7.90;68.60;97216.03;5012396;28;20057;-60
2023/11/24 05:15:34;;;;;;;9.53;2.13;;;6.20;99.90;;;7.86;68.88;97215.50;5011846;28;20038;-60
2023/11/24 05:18:03;;;;;;;5.13;1.80;;;6.20;99.90;;;7.95;68.63;97215.56;5011524;28;20046;-60
2023/11/24 05:20:31;;;;;;;7.57;4.63;;;6.20;99.90;;;7.90;68.58;97216.03;5011362;28;20510;-61
2023/11/24 05:22:59;;;;;;;18.77;8.67;;;6.20;99.90;;;7.87;68.88;97211.91;5012312;28;20038;-60
2023/11/24 05:25:27;;;;;;;30.77;14.13;;;6.20;99.90;;;7.94;68.79;97222.69;5004133;28;20038;-60
2023/11/24 05:27:54;;;;;;;9.90;2.50;;;6.20;99.90;;;7.67;69.35;97232.44;5011980;28;20042;-60
2023/11/24 05:30:22;;;;;;;9.67;5.50;;;6.10;99.90;;;7.72;69.27;97213.44;5011149;28;20046;-60
2023/11/24 05:32:50;;;;;;;9.57;3.03;;;6.10;99.90;;;7.69;69.71;97211.91;5012051;28;20496;-59
2023/11/24 05:35:17;;;;;;;8.83;4.10;;;6.10;99.90;;;7.48;70.21;97208.75;5011612;28;20057;-59
2023/11/24 05:37:45;;;;;;;8.83;5.43;;;6.00;99.90;;;7.54;69.88;97197.56;5010799;28;20090;-59
2023/11/24 05:40:13;;;;;;;7.70;2.17;;;6.00;99.90;;;7.47;70.29;97193.84;5011905;28;20049;-60
2023/11/24 05:42:41;;;;;;;11.23;5.77;;;6.00;99.90;;;7.51;70.11;97199.69;5010448;28;20034;-60
2023/11/24 05:45:09;;;;;;;6.30;3.07;;;6.00;99.90;;;7.49;70.20;97221.03;5011497;28;20514;-59
2023/11/24 05:47:37;;;;;;;7.80;2.83;;;6.00;99.90;;;7.42;70.40;97198.78;5011921;28;20353;-59
2023/11/24 05:50:06;;;;;;;7.83;2.23;;;6.00;99.90;;;7.39;70.34;97189.31;5011629;28;20042;-60
2023/11/24 05:52:34;;;;;;;6.90;2.00;;;6.00;99.90;;;7.47;70.32;97181.44;5011775;28;20049;-60
2023/11/24 05:55:05;;;;;;;6.93;2.17;;;6.00;99.90;;;7.38;71.14;97198.25;5011404;28;20048;-59
2023/11/24 05:57:33;;;;;;;7.67;2.30;;;6.00;99.90;;;7.44;70.98;97183.56;5004166;28;20069;-59
2023/11/24 06:00:00;;;;;;;6.30;2.17;;;6.00;99.90;;;7.38;71.26;97181.53;5011605;28;20101;-59
2023/11/24 06:02:38;;;;;;;5.80;2.20;;;6.00;99.90;;;7.36;70.68;97170.25;5007187;28;20045;-59
2023/11/24 06:05:06;;;;;;;2.63;1.60;;;6.10;99.90;;;7.38;70.66;97165.63;5010952;28;20515;-59
2023/11/24 06:07:34;;;;;;;5.40;2.10;;;6.10;99.90;;;7.20;71.29;97161.19;5010331;28;20046;-59
2023/11/24 06:10:02;;;;;;;3.13;1.90;;;6.00;99.90;;;7.24;71.49;97157.25;5010444;28;20049;-59
2023/11/24 06:12:29;;;;;;;5.53;1.77;;;6.10;99.90;;;7.20;71.17;97152.41;5002911;28;20045;-59
2023/11/24 06:14:57;;;;;;;3.47;1.27;;;6.10;99.90;;;7.30;70.78;97159.28;5010932;28;20050;-59
2023/11/24 06:17:25;;;;;;;3.10;1.93;;;6.20;99.90;;;7.39;70.90;97138.19;5011314;28;20053;-59
2023/11/24 06:19:53;;;;;;;3.93;2.10;;;6.20;99.90;;;7.53;70.61;97144.75;5011200;28;20042;-60
2023/11/24 06:22:20;;;;;;;6.53;2.00;;;6.30;99.90;;;7.55;70.13;97133.00;5010032;28;20483;-60
2023/11/24 06:24:48;;;;;;;5.53;2.20;;;6.30;99.90;;;7.72;70.05;97122.53;5011098;28;20042;-60
2023/11/24 06:27:15;;;;;;;3.87;1.00;;;6.50;99.90;;;7.60;69.25;97125.41;5011195;28;20514;-60
2023/11/24 06:29:43;;;;;;;5.53;1.50;;;6.50;96.20;;;7.47;69.63;97122.34;5011188;28;20049;-60
2023/11/24 06:32:11;;;;;;;5.10;1.63;;;6.50;96.30;;;7.66;68.75;97135.41;5010250;28;20510;-60
2023/11/24 06:34:39;;;;;;;4.30;1.60;;;6.70;94.70;;;7.79;68.35;97123.53;5010801;28;20052;-60
2023/11/24 06:37:07;;;;;;;3.57;2.30;;;6.80;94.00;;;7.73;68.53;97122.34;5009844;28;20054;-60
2023/11/24 06:39:35;;;;;;;5.77;1.87;;;6.80;92.90;;;7.64;67.20;97120.66;5011160;28;20037;-60
2023/11/24 06:42:06;;;;;;;5.80;1.90;;;6.80;88.10;;;7.66;66.35;97100.94;5010271;28;20073;-60
2023/11/24 06:44:33;;;;;;;5.70;2.80;;;6.90;86.60;;;7.78;66.88;97122.72;5003194;28;20045;-60
2023/11/24 06:47:02;;;;;;;4.97;2.10;;;6.90;89.60;;;7.78;67.41;97113.94;5011201;28;20050;-61
2023/11/24 06:49:32;;;;;;;5.67;1.43;;;6.80;90.30;;;7.80;66.47;97120.75;5009555;28;20053;-62
2023/11/24 06:52:01;;;;;;;5.60;1.70;;;6.90;87.80;;;7.95;66.55;97128.94;5010824;28;20045;-61
2023/11/24 06:54:29;;;;;;;8.10;2.37;;;6.90;88.50;;;7.78;65.67;97135.97;5010811;28;20049;-60
2023/11/24 06:56:57;;;;;;;5.70;1.83;;;6.90;85.70;;;7.94;65.75;97121.16;5011170;28;20053;-63
2023/11/24 06:59:27;;;;;;;4.63;2.43;;;7.00;87.00;;;7.96;65.37;97124.47;5010791;28;20038;-61
2023/11/24 07:01:55;;;;;;;5.10;1.40;;;7.00;86.30;;;8.07;65.41;97121.56;5010562;28;20050;-64
2023/11/24 07:04:23;;;;;;;4.67;2.33;;;7.00;87.00;;;8.14;65.27;97133.16;5010376;28;20049;-64
2023/11/24 07:06:51;;;;;;;6.37;1.67;;;7.10;86.70;;;8.24;65.52;97125.94;5010905;28;20057;-64
2023/11/24 07:09:19;;;;;;;3.23;1.73;;;7.00;88.60;;;8.38;65.44;97121.84;5009697;28;20054;-63
2023/11/24 07:11:47;;;;;;;7.33;3.43;;;7.10;89.70;;;8.49;65.44;97126.06;5010699;28;20049;-60
2023/11/24 07:14:15;;;;;;;5.50;3.03;;;7.10;90.30;;;8.53;65.40;97134.53;5010151;28;20423;-61
2023/11/24 07:16:43;;;;;;;11.83;3.03;;;7.10;90.90;;;8.64;65.36;97126.28;5010683;28;20042;-60
2023/11/24 07:19:10;;;;;;;5.27;3.00;;;7.10;91.80;;;8.56;65.58;97126.25;5009081;28;20046;-61
2023/11/24 07:21:38;;;;;;;8.00;3.43;;;7.00;91.80;;;8.63;65.58;97130.75;5010683;28;20041;-65
2023/11/24 07:24:06;;;;;;;8.37;2.43;;;7.10;93.80;;;8.62;65.95;97122.94;5009985;28;20530;-62
2023/11/24 07:26:34;;;;;;;9.10;3.90;;;7.00;93.70;;;8.64;65.87;97131.56;5012899;28;20045;-62
2023/11/24 07:29:02;;;;;;;7.60;3.50;;;7.10;93.80;;;8.60;65.99;97119.63;5010334;28;20042;-62
2023/11/24 07:31:30;;;;;;;6.80;3.03;;;7.10;95.10;;;8.32;67.32;97119.84;5013876;28;20050;-63
2023/11/24 07:33:57;;;;;;;6.07;2.73;;;7.00;95.90;;;8.45;66.80;97098.19;5014027;28;20042;-66
2023/11/24 07:36:25;;;;;;;3.83;2.10;;;6.90;98.00;;;8.44;67.34;97091.22;5013746;28;20076;-63
2023/11/24 07:38:53;;;;;;;6.47;1.87;;;6.90;98.70;;;8.45;67.42;97100.84;5014002;28;20038;-62
2023/11/24 07:41:22;;;;;;;5.80;2.10;;;7.00;98.60;;;8.46;67.64;97098.03;5014163;28;20065;-62
2023/11/24 07:43:49;;;;;;;5.33;1.70;;;7.00;99.00;;;8.53;67.83;97103.53;5009605;28;20057;-61
2023/11/24 07:46:17;;;;;;;6.97;2.30;;;7.00;99.00;;;8.50;67.84;97101.19;5013399;28;20042;-62
2023/11/24 07:48:45;;;;;;;4.30;1.90;;;7.00;99.10;;;8.51;67.84;97118.78;5013703;28;20045;-61
2023/11/24 07:51:12;;;;;;;4.07;1.80;;;7.00;99.10;;;8.62;67.83;97112.34;5013939;28;20052;-61
2023/11/24 07:53:40;;;;;;;4.87;2.47;;;7.10;99.90;;;8.74;67.54;97091.63;5013804;28;20038;-62
2023/11/24 07:56:08;;;;;;;3.20;1.80;;;7.20;99.00;;;8.74;67.40;97088.97;5013986;28;20069;-62
2023/11/24 07:58:35;;;;;;;3.47;1.77;;;7.20;98.40;;;8.80;67.38;97094.47;5013593;28;20518;-61
2023/11/24 08:01:03;;;;;;;8.47;2.60;;;7.20;98.30;;;8.80;67.38;97094.47;5013762;28;20347;-63
2023/11/24 08:03:35;;;;;;;5.23;2.47;;;7.20;97.90;;;8.83;67.40;97088.81;5013150;28;20053;-60
2023/11/24 08:06:06;;;;;;;5.93;2.50;;;7.20;98.70;;;8.92;67.13;97091.47;5013665;28;20529;-60
2023/11/24 08:08:35;;;;;;;4.73;2.73;;;7.30;99.00;;;8.96;67.08;97082.22;5013584;28;20041;-60
2023/11/24 08:11:03;;;;;;;3.97;2.20;;;7.30;98.60;;;8.86;67.26;97077.88;5011857;28;20049;-61
2023/11/24 08:13:30;;;;;;;4.43;2.40;;;7.20;97.40;;;8.76;67.18;97087.00;5013257;28;20046;-60
2023/11/24 08:16:00;;;;;;;6.00;2.30;;;7.10;97.70;;;8.67;67.39;97081.66;5013414;28;20038;-59
2023/11/24 08:18:27;;;;;;;6.50;2.53;;;7.10;98.80;;;8.44;68.11;97077.97;5013372;28;20069;-61
2023/11/24 08:20:55;;;;;;;4.73;2.50;;;7.00;98.30;;;8.45;68.33;97063.69;5013383;28;20049;-62
2023/11/24 08:23:23;;;;;;;4.57;2.57;;;7.00;99.30;;;8.55;67.87;97058.25;5012990;28;20057;-62
2023/11/24 08:25:51;;;;;;;7.07;2.23;;;7.10;98.30;;;8.51;68.00;97057.78;5012246;28;20045;-62
2023/11/24 08:28:19;;;;;;;4.37;2.37;;;7.10;98.30;;;8.43;68.34;97055.94;5011891;28;20046;-61
2023/11/24 08:30:48;;;;;;;8.97;2.30;;;7.10;98.10;;;8.35;68.67;97061.16;5012290;28;20049;-61
2023/11/24 08:33:16;;;;;;;4.73;1.70;;;7.10;97.30;;;8.39;68.49;97057.19;5012878;28;20077;-61
2023/11/24 08:35:44;;;;;;;6.27;2.20;;;7.20;97.70;;;8.12;69.40;97052.97;5004845;28;20067;-61
2023/11/24 08:38:12;;;;;;;7.57;2.67;;;7.00;98.50;;;8.12;69.81;97068.03;5012908;28;20057;-61
2023/11/24 08:40:42;;;;;;;6.20;3.83;;;7.00;98.70;;;8.24;69.33;97070.25;5012912;28;20034;-61
2023/11/24 08:43:10;;;;;;;10.13;3.20;;;7.10;99.60;;;8.23;69.42;97057.16;5011966;28;20071;-61
2023/11/24 08:45:38;;;;;;;12.40;2.90;;;7.10;99.40;;;8.27;69.53;97058.47;5011068;28;20050;-61
2023/11/24 08:48:05;;;;;;;8.60;2.40;;;7.10;98.90;;;8.25;69.53;97071.91;5011856;28;20046;-61
2023/11/24 08:50:33;;;;;;;9.30;2.30;;;7.10;98.30;;;8.24;69.55;97054.34;5012692;28;20050;-61
2023/11/24 08:53:01;;;;;;;6.83;2.30;;;7.10;98.80;;;8.27;69.67;97047.88;5012819;28;20053;-61
2023/11/24 08:55:28;;;;;;;6.10;2.43;;;7.10;99.70;;;8.14;69.85;97044.84;5012207;28;20530;-61
2023/11/24 08:57:59;;;;;;;8.27;2.43;;;7.10;98.20;;;8.29;69.32;97037.94;5012796;28;20422;-61
2023/11/24 09:00:30;;;;;;;6.20;1.90;;;7.20;98.00;;;8.25;69.46;97055.16;5012582;28;20097;-62
2023/11/24 09:02:59;;;;;;;7.37;2.13;;;7.20;97.70;;;8.17;69.69;97039.25;5012653;28;20038;-62
2023/11/24 09:05:27;;;;;;;5.10;2.10;;;7.10;97.70;;;8.09;69.67;97035.56;5012199;28;20041;-63
2023/11/24 09:07:54;;;;;;;9.63;2.93;;;7.10;97.40;;;8.22;69.42;97035.13;5011287;28;20427;-62
2023/11/24 09:10:22;;;;;;;6.43;2.20;;;7.10;97.60;;;8.17;69.43;97025.97;5012063;28;20495;-62
2023/11/24 09:12:50;;;;;;;3.70;2.30;;;7.10;97.90;;;8.17;69.77;97039.25;5012595;28;20034;-62
2023/11/24 09:15:18;;;;;;;6.53;3.10;;;7.10;97.40;;;8.20;69.49;97028.28;5012273;28;20045;-62
2023/11/24 09:17:45;;;;;;;6.10;2.77;;;7.10;98.30;;;8.11;69.50;97030.09;5011136;28;20057;-62
2023/11/24 09:20:16;;;;;;;5.33;2.33;;;7.10;97.20;;;8.02;69.88;97037.19;5012235;28;20049;-62
2023/11/24 09:22:45;;;;;;;6.23;2.80;;;7.00;97.00;;;8.11;69.66;97023.97;5011937;28;20045;-62
2023/11/24 09:25:15;;;;;;;10.60;2.97;;;7.10;97.50;;;8.26;69.13;97028.50;5011978;28;20038;-62
2023/11/24 09:27:43;;;;;;;4.97;2.57;;;7.10;96.80;;;8.11;69.46;97023.97;5011082;28;20046;-62
2023/11/24 09:30:11;;;;;;;6.97;2.80;;;7.10;96.90;;;8.21;69.06;97011.41;5012143;28;20050;-64
2023/11/24 09:32:41;;;;;;;7.33;2.53;;;7.10;96.80;;;8.16;69.08;97019.00;5011112;28;20050;-62
2023/11/24 09:35:10;;;;;;;13.47;3.40;;;7.10;96.50;;;8.34;68.17;97019.72;5010503;28;20491;-63
2023/11/24 09:37:38;;;;;;;12.03;2.20;;;7.20;95.20;;;8.02;68.77;97009.84;5011917;28;20420;-63
2023/11/24 09:40:12;;;;;;;6.20;2.00;;;7.10;94.00;;;8.17;68.46;97010.88;5011986;28;20042;-63
2023/11/24 09:42:44;;;;;;;5.20;2.70;;;7.10;95.50;;;8.35;68.07;97008.09;5011697;28;20049;-62
2023/11/24 09:45:19;;;;;;;8.13;2.67;;;7.20;94.00;;;8.44;67.58;97001.88;5010187;28;20038;-62
2023/11/24 09:47:49;;;;;;;5.43;2.03;;;7.30;93.70;;;8.09;67.72;96998.44;5010864;28;20037;-62
2023/11/24 09:50:24;;;;;;;5.77;2.70;;;7.10;91.70;;;7.92;67.58;96995.91;5011593;28;20411;-61
2023/11/24 09:52:56;;;;;;;8.33;3.30;;;7.00;91.00;;;8.04;67.35;96995.44;5004244;28;20049;-62
2023/11/24 09:55:25;;;;;;;9.13;2.73;;;7.10;91.60;;;8.11;67.45;96989.50;5011517;28;20041;-62
2023/11/24 09:57:55;;;;;;;6.17;2.70;;;7.10;90.90;;;7.98;67.18;96972.22;4994552;28;20507;-61
2023/11/24 10:00:25;;;;;;;7.30;3.27;;;7.00;90.70;;;8.01;67.22;96969.25;5011440;28;20053;-61
2023/11/24 10:03:00;;;;;;;7.23;2.60;;;7.00;91.20;;;7.95;67.40;96974.38;4994579;28;20049;-62
2023/11/24 10:05:29;;;;;;;10.18;2.40;;;7.00;91.00;;;8.02;67.00;96968.25;5009797;28;20049;-62
2023/11/24 10:07:59;;;;;;;11.47;3.70;;;7.10;90.90;;;8.04;66.27;96957.50;5011463;28;20049;-61
2023/11/24 10:10:28;;;;;;;7.83;3.63;;;7.10;88.60;;;7.92;66.46;96949.03;5011188;28;20487;-61
2023/11/24 10:13:01;;;;;;;4.63;2.20;;;7.00;88.50;;;8.02;66.72;96932.97;5011396;28;20053;-61
2023/11/24 10:15:31;;;;;;;7.33;2.13;;;7.10;91.00;;;7.95;67.24;96942.56;5009911;28;20041;-61
2023/11/24 10:17:59;;;;;;;10.80;2.00;;;6.90;91.70;;;7.83;66.98;96929.63;5011291;28;20092;-61
2023/11/24 10:20:28;;;;;;;7.27;2.73;;;6.90;90.20;;;7.95;67.21;96916.91;5010269;28;20491;-62
2023/11/24 10:22:58;;;;;;;6.43;1.93;;;6.90;92.10;;;7.97;67.09;96920.22;5010340;28;20379;-61
2023/11/24 10:25:29;;;;;;;6.27;2.87;;;7.00;90.70;;;7.96;66.98;96913.25;5009594;28;20046;-61
2023/11/24 10:28:05;;;;;;;7.57;2.60;;;7.00;90.90;;;7.89;67.13;96909.59;5000927;28;20038;-62
2023/11/24 10:30:34;;;;;;;6.00;1.80;;;7.00;90.60;;;7.91;67.28;96915.56;5010040;28;20137;-62
2023/11/24 10:33:03;;;;;;;12.07;3.30;;;7.00;90.50;;;7.95;67.21;96913.41;5010986;28;20037;-61
2023/11/24 10:35:31;;;;;;;5.43;2.67;;;7.10;90.40;;;8.00;66.27;96898.66;5010421;28;20046;-61
2023/11/24 10:38:01;;;;;;;11.70;2.40;;;7.20;87.20;;;8.02;66.21;96896.69;5009774;28;20038;-61